createdAt,value
2023-11-21T00:00:09.443Z,96.73
2023-11-21T00:01:09.485Z,96.63
2023-11-21T00:02:09.615Z,96.53
2023-11-21T00:03:09.574Z,96.53
2023-11-21T00:04:09.440Z,96.42
2023-11-21T00:05:09.381Z,96.32
2023-11-21T00:06:09.383Z,96.32
2023-11-21T00:07:09.409Z,96.01
2023-11-21T00:08:09.337Z,96.01
2023-11-21T00:09:09.350Z,95.91
2023-11-21T00:10:09.676Z,95.91
2023-11-21T00:11:09.315Z,95.61
2023-11-21T00:12:09.345Z,95.50
2023-11-21T00:13:09.319Z,95.50
2023-11-21T00:14:09.307Z,95.50
2023-11-21T00:15:09.286Z,95.50
2023-11-21T00:16:09.364Z,95.61
2023-11-21T00:17:09.340Z,95.61
2023-11-21T00:18:09.271Z,95.40
2023-11-21T00:19:09.265Z,95.29
2023-11-21T00:20:09.257Z,95.40
2023-11-21T00:21:09.217Z,95.29
2023-11-21T00:22:09.236Z,95.29
2023-11-21T00:23:09.198Z,95.20
2023-11-21T00:24:09.184Z,95.20
2023-11-21T00:25:09.307Z,95.20
2023-11-21T00:26:09.159Z,95.20
2023-11-21T00:27:09.147Z,94.99
2023-11-21T00:28:09.172Z,95.09
2023-11-21T00:29:09.151Z,95.20
2023-11-21T00:30:09.121Z,95.29
2023-11-21T00:31:09.123Z,95.09
2023-11-21T00:32:09.125Z,94.99
2023-11-21T00:33:09.180Z,94.99
2023-11-21T00:34:09.101Z,94.89
2023-11-21T00:35:09.085Z,94.78
2023-11-21T00:36:09.067Z,94.78
2023-11-21T00:37:09.147Z,94.89
2023-11-21T00:38:09.043Z,94.78
2023-11-21T00:39:09.014Z,94.78
2023-11-21T00:40:09.038Z,94.78
2023-11-21T00:41:09.003Z,94.68
2023-11-21T00:42:09.007Z,94.78
2023-11-21T00:43:09.145Z,94.78
2023-11-21T00:44:08.992Z,94.68
2023-11-21T00:45:08.953Z,94.89
2023-11-21T00:46:09.104Z,95.09
2023-11-21T00:47:09.002Z,94.99
2023-11-21T00:48:08.962Z,94.99
2023-11-21T00:49:08.920Z,95.09
2023-11-21T00:50:08.951Z,94.99
2023-11-21T00:51:08.884Z,95.09
2023-11-21T00:52:08.889Z,95.20
2023-11-21T00:53:08.875Z,95.29
2023-11-21T00:54:08.883Z,95.40
2023-11-21T00:55:09.119Z,95.36
2023-11-21T00:56:08.842Z,95.40
2023-11-21T00:57:08.829Z,95.40
2023-11-21T00:58:08.837Z,95.40
2023-11-21T00:59:08.828Z,95.46
2023-11-21T01:00:08.814Z,95.46
2023-11-21T01:01:08.869Z,95.36
2023-11-21T01:02:08.838Z,95.25
2023-11-21T01:03:08.889Z,95.15
2023-11-21T01:04:08.750Z,95.15
2023-11-21T01:05:08.753Z,95.05
2023-11-21T01:06:08.749Z,95.15
2023-11-21T01:07:08.732Z,95.36
2023-11-21T01:08:08.742Z,95.36
2023-11-21T01:09:08.697Z,95.25
2023-11-21T01:10:08.865Z,95.05
2023-11-21T01:11:08.678Z,95.05
2023-11-21T01:12:08.688Z,95.05
2023-11-21T01:13:08.701Z,95.15
2023-11-21T01:14:08.673Z,95.25
2023-11-21T01:15:08.752Z,95.25
2023-11-21T01:16:08.626Z,95.25
2023-11-21T01:17:08.775Z,95.36
2023-11-21T01:18:08.746Z,95.36
2023-11-21T01:19:08.586Z,95.25
2023-11-21T01:20:08.635Z,95.25
2023-11-21T01:21:08.563Z,95.25
2023-11-21T01:22:08.560Z,95.15
2023-11-21T01:23:08.556Z,95.15
2023-11-21T01:24:08.661Z,95.25
2023-11-21T01:25:08.609Z,95.36
2023-11-21T01:26:08.582Z,95.46
2023-11-21T01:27:08.511Z,95.25
2023-11-21T01:28:08.505Z,95.36
2023-11-21T01:29:08.541Z,95.46
2023-11-21T01:30:08.492Z,95.66
2023-11-21T01:31:08.594Z,95.76
2023-11-21T01:32:08.605Z,95.87
2023-11-21T01:33:08.514Z,95.87
2023-11-21T01:34:08.447Z,95.97
2023-11-21T01:35:08.449Z,96.07
2023-11-21T01:36:08.419Z,96.17
2023-11-21T01:37:08.413Z,96.28
2023-11-21T01:38:08.411Z,96.38
2023-11-21T01:39:08.401Z,96.28
2023-11-21T01:40:08.376Z,96.48
2023-11-21T01:41:08.377Z,96.38
2023-11-21T01:42:08.372Z,96.28
2023-11-21T01:43:08.341Z,96.38
2023-11-21T01:44:08.341Z,96.48
2023-11-21T01:45:08.323Z,96.58
2023-11-21T01:46:08.309Z,96.69
2023-11-21T01:47:08.309Z,96.69
2023-11-21T01:48:08.374Z,96.69
2023-11-21T01:49:08.273Z,96.58
2023-11-21T01:50:08.263Z,96.58
2023-11-21T01:51:08.320Z,96.69
2023-11-21T01:52:08.237Z,96.69
2023-11-21T01:53:08.227Z,96.69
2023-11-21T01:54:17.178Z,96.69
2023-11-21T01:55:09.202Z,96.58
2023-11-21T01:56:08.236Z,96.58
2023-11-21T01:57:08.198Z,96.58
2023-11-21T01:58:08.174Z,96.48
2023-11-21T01:59:08.152Z,96.28
2023-11-21T02:00:08.167Z,96.17
2023-11-21T02:01:08.220Z,96.07
2023-11-21T02:02:08.168Z,96.07
2023-11-21T02:03:08.533Z,96.07
2023-11-21T02:04:08.148Z,95.97
2023-11-21T02:05:08.113Z,95.97
2023-11-21T02:06:08.106Z,96.07
2023-11-21T02:07:08.086Z,95.87
2023-11-21T02:08:08.373Z,95.97
2023-11-21T02:09:08.381Z,95.97
2023-11-21T02:10:08.058Z,96.07
2023-11-21T02:11:08.057Z,95.76
2023-11-21T02:12:08.027Z,95.66
2023-11-21T02:13:08.020Z,95.76
2023-11-21T02:14:08.022Z,95.87
2023-11-21T02:15:07.995Z,95.87
2023-11-21T02:16:07.986Z,95.66
2023-11-21T02:17:07.989Z,95.66
2023-11-21T02:18:08.161Z,95.66
2023-11-21T02:19:07.962Z,95.56
2023-11-21T02:20:08.008Z,95.56
2023-11-21T02:21:07.921Z,95.56
2023-11-21T02:22:07.920Z,95.56
2023-11-21T02:23:07.903Z,95.56
2023-11-21T02:24:07.901Z,95.46
2023-11-21T02:25:29.183Z,95.36
2023-11-21T02:26:07.879Z,95.36
2023-11-21T02:27:07.863Z,95.25
2023-11-21T02:28:08.096Z,95.15
2023-11-21T02:29:07.841Z,95.25
2023-11-21T02:30:07.867Z,95.25
2023-11-21T02:31:07.847Z,95.25
2023-11-21T02:32:07.874Z,95.25
2023-11-21T02:33:07.863Z,95.25
2023-11-21T02:34:07.777Z,95.25
2023-11-21T02:35:07.782Z,95.25
2023-11-21T02:36:07.769Z,95.25
2023-11-21T02:37:07.794Z,95.15
2023-11-21T02:38:07.750Z,95.15
2023-11-21T02:39:07.730Z,95.25
2023-11-21T02:40:07.799Z,95.25
2023-11-21T02:41:07.705Z,95.25
2023-11-21T02:42:07.734Z,94.95
2023-11-21T02:43:07.741Z,94.84
2023-11-21T02:44:07.720Z,94.84
2023-11-21T02:45:07.688Z,94.95
2023-11-21T02:46:07.683Z,94.95
2023-11-21T02:47:07.695Z,94.95
2023-11-21T02:48:07.762Z,95.05
2023-11-21T02:49:07.652Z,94.95
2023-11-21T02:50:07.638Z,94.84
2023-11-21T02:51:07.602Z,94.84
2023-11-21T02:52:07.609Z,94.64
2023-11-21T02:53:07.623Z,94.64
2023-11-21T02:54:07.612Z,94.64
2023-11-21T02:55:07.557Z,94.64
2023-11-21T02:56:07.550Z,94.84
2023-11-21T02:57:07.554Z,94.84
2023-11-21T02:58:07.731Z,94.84
2023-11-21T02:59:07.505Z,94.84
2023-11-21T03:00:07.537Z,94.84
2023-11-21T03:01:07.653Z,94.74
2023-11-21T03:02:07.554Z,94.74
2023-11-21T03:03:07.521Z,94.84
2023-11-21T03:04:07.517Z,94.95
2023-11-21T03:05:07.494Z,95.05
2023-11-21T03:06:07.504Z,95.05
2023-11-21T03:07:07.430Z,94.95
2023-11-21T03:08:07.427Z,94.74
2023-11-21T03:09:07.427Z,94.74
2023-11-21T03:10:07.514Z,94.74
2023-11-21T03:11:07.424Z,94.84
2023-11-21T03:12:07.397Z,94.84
2023-11-21T03:13:07.388Z,94.84
2023-11-21T03:14:07.374Z,94.84
2023-11-21T03:15:07.366Z,94.74
2023-11-21T03:16:07.421Z,94.84
2023-11-21T03:17:07.428Z,94.74
2023-11-21T03:18:07.407Z,94.84
2023-11-21T03:19:07.645Z,94.95
2023-11-21T03:20:07.403Z,94.95
2023-11-21T03:21:07.286Z,95.05
2023-11-21T03:22:07.279Z,94.95
2023-11-21T03:23:07.259Z,95.25
2023-11-21T03:24:07.246Z,95.25
2023-11-21T03:25:07.246Z,95.15
2023-11-21T03:26:07.232Z,95.29
2023-11-21T03:27:07.206Z,95.05
2023-11-21T03:28:07.210Z,95.15
2023-11-21T03:29:07.203Z,95.25
2023-11-21T03:30:07.205Z,95.25
2023-11-21T03:31:07.185Z,95.36
2023-11-21T03:32:07.171Z,95.66
2023-11-21T03:33:07.206Z,95.66
2023-11-21T03:34:07.198Z,95.56
2023-11-21T03:35:07.724Z,95.46
2023-11-21T03:36:07.153Z,95.25
2023-11-21T03:37:07.124Z,95.20
2023-11-21T03:38:07.116Z,95.05
2023-11-21T03:39:07.146Z,94.84
2023-11-21T03:40:07.128Z,94.95
2023-11-21T03:41:07.089Z,94.95
2023-11-21T03:42:07.070Z,94.84
2023-11-21T03:43:07.064Z,94.95
2023-11-21T03:44:07.074Z,95.05
2023-11-21T03:45:07.060Z,94.84
2023-11-21T03:46:07.026Z,94.74
2023-11-21T03:47:07.052Z,94.84
2023-11-21T03:48:07.059Z,95.05
2023-11-21T03:49:06.992Z,94.95
2023-11-21T03:50:07.134Z,94.84
2023-11-21T03:51:06.999Z,95.05
2023-11-21T03:52:07.018Z,95.05
2023-11-21T03:53:06.965Z,95.15
2023-11-21T03:54:06.947Z,95.15
2023-11-21T03:55:06.929Z,94.95
2023-11-21T03:56:06.951Z,94.78
2023-11-21T03:57:07.248Z,94.89
2023-11-21T03:58:06.912Z,94.89
2023-11-21T03:59:06.896Z,95.05
2023-11-21T04:00:06.878Z,95.20
2023-11-21T04:01:06.879Z,95.25
2023-11-21T04:02:06.860Z,95.25
2023-11-21T04:03:06.898Z,95.36
2023-11-21T04:04:06.990Z,95.25
2023-11-21T04:05:06.844Z,95.05
2023-11-21T04:06:06.827Z,95.15
2023-11-21T04:07:06.799Z,95.36
2023-11-21T04:08:06.819Z,95.46
2023-11-21T04:09:06.767Z,95.56
2023-11-21T04:10:06.775Z,95.76
2023-11-21T04:11:06.755Z,95.87
2023-11-21T04:12:06.815Z,96.07
2023-11-21T04:13:06.864Z,96.07
2023-11-21T04:14:06.756Z,96.17
2023-11-21T04:15:06.782Z,96.28
2023-11-21T04:16:06.719Z,96.28
2023-11-21T04:17:06.761Z,96.28
2023-11-21T04:18:06.784Z,96.38
2023-11-21T04:19:06.678Z,96.58
2023-11-21T04:20:06.649Z,96.69
2023-11-21T04:21:06.642Z,96.89
2023-11-21T04:22:06.904Z,96.99
2023-11-21T04:23:06.646Z,97.09
2023-11-21T04:24:06.627Z,96.99
2023-11-21T04:25:06.598Z,96.89
2023-11-21T04:26:06.601Z,97.04
2023-11-21T04:27:06.598Z,97.04
2023-11-21T04:28:06.578Z,97.24
2023-11-21T04:29:06.545Z,97.34
2023-11-21T04:30:06.551Z,97.24
2023-11-21T04:31:06.544Z,97.24
2023-11-21T04:32:06.533Z,97.45
2023-11-21T04:33:06.548Z,97.55
2023-11-21T04:34:06.507Z,97.65
2023-11-21T04:35:07.532Z,97.75
2023-11-21T04:36:06.486Z,97.75
2023-11-21T04:37:06.658Z,97.55
2023-11-21T04:38:06.667Z,97.45
2023-11-21T04:39:06.466Z,97.34
2023-11-21T04:40:06.476Z,97.45
2023-11-21T04:41:06.475Z,97.34
2023-11-21T04:42:06.468Z,97.04
2023-11-21T04:43:06.483Z,96.94
2023-11-21T04:44:06.409Z,96.83
2023-11-21T04:45:06.403Z,96.83
2023-11-21T04:46:06.405Z,96.94
2023-11-21T04:47:06.481Z,97.04
2023-11-21T04:48:06.454Z,96.94
2023-11-21T04:49:07.343Z,96.83
2023-11-21T04:50:06.337Z,96.94
2023-11-21T04:51:07.393Z,96.94
2023-11-21T04:52:06.340Z,97.04
2023-11-21T04:53:07.859Z,97.04
2023-11-21T04:54:06.299Z,97.04
2023-11-21T04:55:06.999Z,97.04
2023-11-21T04:56:06.341Z,97.14
2023-11-21T04:57:06.367Z,97.14
2023-11-21T04:58:07.115Z,97.14
2023-11-21T04:59:07.267Z,97.14
2023-11-21T05:00:06.295Z,97.04
2023-11-21T05:01:08.599Z,97.04
2023-11-21T05:02:06.394Z,97.14
2023-11-21T05:03:06.876Z,97.04
2023-11-21T05:04:06.257Z,96.98
2023-11-21T05:05:06.388Z,97.08
2023-11-21T05:06:06.201Z,97.08
2023-11-21T05:07:06.160Z,97.08
2023-11-21T05:08:06.158Z,97.08
2023-11-21T05:09:06.161Z,97.08
2023-11-21T05:10:06.120Z,97.19
2023-11-21T05:11:06.130Z,97.29
2023-11-21T05:12:06.110Z,97.29
2023-11-21T05:13:06.096Z,97.29
2023-11-21T05:14:06.103Z,97.39
2023-11-21T05:15:06.057Z,97.39
2023-11-21T05:16:06.160Z,97.39
2023-11-21T05:17:06.166Z,97.49
2023-11-21T05:18:06.089Z,97.49
2023-11-21T05:19:06.047Z,97.49
2023-11-21T05:20:06.114Z,97.49
2023-11-21T05:21:05.990Z,97.49
2023-11-21T05:22:05.996Z,97.60
2023-11-21T05:23:06.005Z,97.49
2023-11-21T05:24:05.977Z,97.49
2023-11-21T05:25:06.109Z,97.49
2023-11-21T05:26:05.970Z,97.49
2023-11-21T05:27:05.954Z,97.49
2023-11-21T05:28:06.040Z,97.49
2023-11-21T05:29:05.988Z,97.49
2023-11-21T05:30:06.113Z,97.39
2023-11-21T05:31:13.910Z,97.29
2023-11-21T05:32:07.045Z,97.19
2023-11-21T05:33:06.033Z,96.98
2023-11-21T05:34:05.869Z,96.98
2023-11-21T05:35:05.873Z,96.88
2023-11-21T05:36:05.904Z,96.88
2023-11-21T05:37:05.835Z,96.98
2023-11-21T05:38:05.855Z,97.19
2023-11-21T05:39:05.934Z,97.19
2023-11-21T05:40:07.220Z,96.88
2023-11-21T05:41:05.800Z,96.78
2023-11-21T05:42:08.480Z,96.78
2023-11-21T05:43:05.791Z,96.67
2023-11-21T05:44:06.217Z,96.78
2023-11-21T05:45:05.756Z,96.67
2023-11-21T05:46:05.823Z,96.57
2023-11-21T05:47:05.905Z,96.47
2023-11-21T05:48:05.733Z,96.47
2023-11-21T05:49:05.716Z,96.47
2023-11-21T05:50:05.715Z,96.47
2023-11-21T05:51:05.693Z,96.47
2023-11-21T05:52:05.706Z,96.47
2023-11-21T05:53:05.709Z,96.57
2023-11-21T05:54:05.678Z,96.67
2023-11-21T05:55:05.659Z,96.78
2023-11-21T05:56:05.646Z,96.78
2023-11-21T05:57:05.691Z,96.78
2023-11-21T05:58:05.662Z,96.78
2023-11-21T05:59:05.629Z,96.67
2023-11-21T06:00:05.589Z,96.67
2023-11-21T06:01:05.587Z,96.67
2023-11-21T06:02:05.587Z,96.67
2023-11-21T06:03:05.756Z,96.57
2023-11-21T06:04:05.640Z,96.57
2023-11-21T06:05:05.622Z,96.47
2023-11-21T06:06:05.527Z,96.37
2023-11-21T06:07:05.542Z,96.26
2023-11-21T06:08:05.552Z,96.37
2023-11-21T06:09:05.509Z,96.47
2023-11-21T06:10:05.487Z,96.47
2023-11-21T06:11:05.593Z,96.47
2023-11-21T06:12:05.476Z,96.47
2023-11-21T06:13:05.481Z,96.37
2023-11-21T06:14:05.472Z,96.47
2023-11-21T06:15:05.443Z,96.57
2023-11-21T06:16:05.430Z,96.57
2023-11-21T06:17:05.559Z,96.67
2023-11-21T06:18:05.417Z,96.67
2023-11-21T06:19:05.400Z,96.67
2023-11-21T06:20:05.366Z,96.57
2023-11-21T06:21:05.349Z,96.57
2023-11-21T06:22:05.360Z,96.57
2023-11-21T06:23:05.409Z,96.67
2023-11-21T06:24:05.367Z,96.67
2023-11-21T06:25:05.319Z,96.67
2023-11-21T06:26:05.335Z,96.78
2023-11-21T06:27:05.283Z,96.88
2023-11-21T06:28:05.301Z,96.98
2023-11-21T06:29:05.267Z,97.19
2023-11-21T06:30:05.261Z,97.19
2023-11-21T06:31:05.275Z,97.19
2023-11-21T06:32:05.245Z,97.08
2023-11-21T06:33:05.337Z,97.08
2023-11-21T06:34:05.272Z,97.08
2023-11-21T06:35:05.331Z,97.19
2023-11-21T06:36:05.234Z,97.39
2023-11-21T06:37:05.200Z,97.60
2023-11-21T06:38:05.291Z,97.70
2023-11-21T06:39:05.173Z,97.39
2023-11-21T06:40:05.171Z,97.39
2023-11-21T06:41:05.220Z,97.39
2023-11-21T06:42:05.157Z,97.39
2023-11-21T06:43:05.141Z,97.29
2023-11-21T06:44:05.182Z,97.19
2023-11-21T06:45:05.133Z,97.29
2023-11-21T06:46:05.123Z,97.08
2023-11-21T06:47:05.168Z,96.98
2023-11-21T06:48:05.161Z,96.98
2023-11-21T06:49:05.072Z,96.98
2023-11-21T06:50:05.122Z,97.08
2023-11-21T06:51:05.036Z,97.19
2023-11-21T06:52:05.050Z,97.29
2023-11-21T06:53:05.167Z,97.29
2023-11-21T06:54:05.026Z,97.29
2023-11-21T06:55:05.002Z,97.29
2023-11-21T06:56:05.108Z,97.39
2023-11-21T06:57:04.997Z,97.39
2023-11-21T06:58:04.974Z,97.29
2023-11-21T06:59:04.992Z,97.29
2023-11-21T07:00:04.969Z,97.08
2023-11-21T07:01:04.961Z,97.08
2023-11-21T07:02:05.084Z,97.08
2023-11-21T07:03:05.019Z,97.08
2023-11-21T07:04:05.014Z,97.08
2023-11-21T07:05:04.932Z,96.88
2023-11-21T07:06:04.873Z,96.78
2023-11-21T07:07:04.868Z,96.67
2023-11-21T07:08:04.927Z,96.67
2023-11-21T07:09:04.863Z,96.63
2023-11-21T07:10:04.869Z,96.73
2023-11-21T07:11:04.914Z,96.63
2023-11-21T07:12:04.830Z,96.63
2023-11-21T07:13:04.826Z,96.63
2023-11-21T07:14:04.804Z,96.63
2023-11-21T07:15:04.798Z,96.63
2023-11-21T07:16:04.831Z,96.73
2023-11-21T07:17:04.808Z,96.73
2023-11-21T07:18:04.784Z,96.53
2023-11-21T07:19:04.750Z,96.53
2023-11-21T07:20:04.803Z,96.53
2023-11-21T07:21:04.757Z,96.53
2023-11-21T07:22:04.730Z,96.53
2023-11-21T07:23:04.773Z,96.42
2023-11-21T07:24:04.710Z,96.32
2023-11-21T07:25:04.707Z,96.32
2023-11-21T07:26:04.713Z,96.42
2023-11-21T07:27:04.659Z,96.42
2023-11-21T07:28:04.682Z,96.53
2023-11-21T07:29:04.655Z,96.63
2023-11-21T07:30:04.638Z,96.53
2023-11-21T07:31:04.670Z,96.53
2023-11-21T07:32:04.740Z,96.42
2023-11-21T07:33:04.646Z,96.42
2023-11-21T07:34:04.615Z,96.53
2023-11-21T07:35:04.676Z,96.53
2023-11-21T07:36:04.593Z,96.53
2023-11-21T07:37:04.591Z,96.32
2023-11-21T07:38:04.551Z,96.32
2023-11-21T07:39:04.545Z,96.32
2023-11-21T07:40:04.516Z,96.53
2023-11-21T07:41:04.546Z,96.53
2023-11-21T07:42:04.532Z,96.42
2023-11-21T07:43:04.514Z,96.22
2023-11-21T07:44:04.545Z,95.87
2023-11-21T07:45:04.496Z,95.76
2023-11-21T07:46:04.445Z,95.66
2023-11-21T07:47:04.500Z,95.66
2023-11-21T07:48:04.486Z,95.66
2023-11-21T07:49:04.422Z,95.46
2023-11-21T07:50:04.447Z,95.46
2023-11-21T07:51:04.419Z,95.25
2023-11-21T07:52:04.379Z,95.05
2023-11-21T07:53:04.457Z,95.15
2023-11-21T07:54:04.370Z,94.95
2023-11-21T07:55:04.398Z,94.95
2023-11-21T07:56:04.375Z,94.95
2023-11-21T07:57:04.349Z,95.05
2023-11-21T07:58:04.366Z,95.05
2023-11-21T07:59:04.405Z,95.05
2023-11-21T08:00:04.303Z,95.36
2023-11-21T08:01:04.300Z,95.66
2023-11-21T08:02:04.325Z,95.76
2023-11-21T08:03:04.395Z,95.87
2023-11-21T08:04:04.509Z,95.97
2023-11-21T08:05:04.332Z,95.46
2023-11-21T08:06:04.335Z,95.36
2023-11-21T08:07:04.253Z,95.25
2023-11-21T08:08:04.416Z,95.10
2023-11-21T08:09:04.246Z,95.10
2023-11-21T08:10:04.188Z,95.10
2023-11-21T08:11:04.215Z,94.90
2023-11-21T08:12:04.267Z,94.80
2023-11-21T08:13:04.177Z,94.59
2023-11-21T08:14:04.219Z,94.59
2023-11-21T08:15:04.152Z,94.59
2023-11-21T08:16:04.205Z,94.70
2023-11-21T08:17:04.886Z,94.55
2023-11-21T08:18:04.192Z,94.65
2023-11-21T08:19:04.132Z,94.65
2023-11-21T08:20:04.205Z,94.75
2023-11-21T08:21:04.089Z,94.65
2023-11-21T08:22:04.074Z,94.34
2023-11-21T08:23:04.181Z,94.24
2023-11-21T08:24:04.057Z,94.34
2023-11-21T08:25:04.047Z,94.55
2023-11-21T08:26:05.868Z,94.96
2023-11-21T08:27:04.070Z,95.22
2023-11-21T08:28:04.021Z,95.22
2023-11-21T08:29:04.045Z,95.32
2023-11-21T08:30:04.017Z,95.12
2023-11-21T08:31:04.022Z,94.81
2023-11-21T08:32:04.024Z,94.51
2023-11-21T08:33:04.002Z,94.15
2023-11-21T08:34:04.243Z,94.06
2023-11-21T08:35:04.119Z,94.36
2023-11-21T08:36:03.998Z,94.26
2023-11-21T08:37:03.932Z,93.95
2023-11-21T08:38:03.932Z,94.06
2023-11-21T08:39:03.905Z,94.01
2023-11-21T08:40:03.893Z,94.11
2023-11-21T08:41:03.976Z,94.32
2023-11-21T08:42:03.868Z,94.52
2023-11-21T08:43:03.887Z,94.62
2023-11-21T08:44:04.037Z,94.73
2023-11-21T08:45:03.828Z,94.73
2023-11-21T08:46:03.858Z,94.52
2023-11-21T08:47:05.655Z,94.32
2023-11-21T08:48:03.840Z,94.21
2023-11-21T08:49:03.806Z,94.11
2023-11-21T08:50:03.905Z,94.01
2023-11-21T08:51:03.806Z,93.50
2023-11-21T08:52:03.738Z,93.40
2023-11-21T08:53:03.848Z,92.94
2023-11-21T08:54:03.734Z,92.74
2023-11-21T08:55:03.718Z,92.54
2023-11-21T08:56:03.749Z,92.23
2023-11-21T08:57:03.702Z,92.13
2023-11-21T08:58:03.748Z,92.43
2023-11-21T08:59:03.709Z,92.39
2023-11-21T09:00:03.679Z,92.59
2023-11-21T09:01:03.724Z,92.69
2023-11-21T09:02:03.758Z,92.29
2023-11-21T09:03:03.689Z,91.98
2023-11-21T09:04:03.760Z,91.88
2023-11-21T09:05:03.649Z,91.98
2023-11-21T09:06:03.609Z,91.57
2023-11-21T09:07:03.616Z,91.57
2023-11-21T09:08:03.637Z,91.67
2023-11-21T09:09:03.569Z,91.47
2023-11-21T09:10:03.559Z,91.78
2023-11-21T09:11:03.605Z,92.08
2023-11-21T09:12:03.530Z,92.19
2023-11-21T09:13:03.528Z,92.19
2023-11-21T09:14:03.553Z,92.19
2023-11-21T09:15:03.540Z,91.98
2023-11-21T09:16:03.533Z,91.88
2023-11-21T09:17:03.569Z,92.08
2023-11-21T09:18:03.491Z,92.19
2023-11-21T09:19:03.469Z,92.29
2023-11-21T09:20:03.520Z,91.88
2023-11-21T09:21:03.451Z,91.98
2023-11-21T09:22:03.468Z,91.47
2023-11-21T09:23:03.491Z,91.57
2023-11-21T09:24:03.417Z,91.67
2023-11-21T09:25:03.416Z,91.98
2023-11-21T09:26:03.463Z,92.04
2023-11-21T09:27:03.390Z,91.53
2023-11-21T09:28:03.410Z,91.02
2023-11-21T09:29:03.407Z,90.81
2023-11-21T09:30:03.345Z,90.61
2023-11-21T09:31:03.349Z,90.71
2023-11-21T09:32:03.375Z,90.41
2023-11-21T09:33:03.347Z,90.81
2023-11-21T09:34:03.331Z,91.33
2023-11-21T09:35:03.451Z,91.33
2023-11-21T09:36:03.305Z,90.71
2023-11-21T09:37:03.295Z,90.31
2023-11-21T09:38:03.337Z,90.61
2023-11-21T09:39:03.289Z,91.43
2023-11-21T09:40:03.243Z,91.74
2023-11-21T09:41:03.296Z,91.94
2023-11-21T09:42:03.220Z,92.14
2023-11-21T09:43:03.240Z,92.04
2023-11-21T09:44:03.225Z,91.43
2023-11-21T09:45:03.213Z,91.53
2023-11-21T09:46:03.225Z,91.83
2023-11-21T09:47:03.290Z,92.04
2023-11-21T09:48:03.330Z,92.04
2023-11-21T09:49:03.176Z,91.63
2023-11-21T09:50:03.195Z,91.74
2023-11-21T09:51:03.140Z,91.83
2023-11-21T09:52:03.141Z,92.04
2023-11-21T09:53:03.161Z,92.45
2023-11-21T09:54:03.093Z,92.65
2023-11-21T09:55:03.108Z,92.65
2023-11-21T09:56:03.116Z,92.86
2023-11-21T09:57:03.077Z,92.65
2023-11-21T09:58:03.059Z,92.86
2023-11-21T09:59:03.087Z,92.96
2023-11-21T10:00:03.042Z,92.76
2023-11-21T10:01:03.035Z,92.76
2023-11-21T10:02:03.066Z,92.65
2023-11-21T10:03:03.099Z,92.55
2023-11-21T10:04:03.065Z,92.76
2023-11-21T10:05:02.999Z,92.96
2023-11-21T10:06:02.958Z,93.51
2023-11-21T10:07:02.952Z,93.71
2023-11-21T10:08:02.999Z,94.02
2023-11-21T10:09:02.939Z,94.02
2023-11-21T10:10:02.937Z,94.12
2023-11-21T10:11:02.983Z,94.23
2023-11-21T10:12:02.893Z,94.43
2023-11-21T10:13:02.890Z,94.43
2023-11-21T10:14:02.981Z,94.33
2023-11-21T10:15:02.863Z,94.12
2023-11-21T10:16:02.888Z,93.82
2023-11-21T10:17:02.949Z,93.71
2023-11-21T10:18:02.870Z,94.12
2023-11-21T10:19:09.276Z,94.33
2023-11-21T10:20:03.970Z,94.53
2023-11-21T10:21:02.877Z,94.33
2023-11-21T10:22:02.815Z,94.53
2023-11-21T10:23:02.801Z,94.43
2023-11-21T10:24:02.799Z,94.48
2023-11-21T10:25:02.776Z,94.37
2023-11-21T10:26:10.799Z,94.48
2023-11-21T10:27:03.795Z,94.48
2023-11-21T10:28:02.737Z,94.58
2023-11-21T10:29:02.806Z,94.98
2023-11-21T10:30:03.488Z,95.39
2023-11-21T10:31:02.709Z,95.90
2023-11-21T10:32:02.764Z,96.31
2023-11-21T10:33:02.796Z,95.90
2023-11-21T10:34:02.672Z,95.19
2023-11-21T10:35:02.700Z,94.78
2023-11-21T10:36:02.649Z,94.89
2023-11-21T10:37:02.634Z,94.78
2023-11-21T10:38:02.662Z,94.78
2023-11-21T10:39:02.620Z,94.27
2023-11-21T10:40:02.612Z,94.07
2023-11-21T10:41:02.653Z,93.51
2023-11-21T10:42:02.596Z,92.69
2023-11-21T10:43:02.647Z,92.39
2023-11-21T10:44:02.655Z,91.98
2023-11-21T10:45:02.568Z,91.83
2023-11-21T10:46:02.560Z,91.43
2023-11-21T10:47:02.643Z,91.33
2023-11-21T10:48:02.600Z,91.08
2023-11-21T10:49:02.533Z,90.88
2023-11-21T10:50:02.549Z,91.03
2023-11-21T10:51:02.485Z,91.20
2023-11-21T10:52:02.490Z,90.99
2023-11-21T10:53:02.563Z,90.69
2023-11-21T10:54:02.532Z,90.79
2023-11-21T10:55:02.445Z,91.09
2023-11-21T10:56:02.548Z,91.09
2023-11-21T10:57:02.757Z,91.20
2023-11-21T10:58:02.420Z,90.38
2023-11-21T10:59:03.561Z,90.59
2023-11-21T11:00:02.398Z,90.32
2023-11-21T11:01:02.397Z,89.61
2023-11-21T11:02:02.483Z,90.12
2023-11-21T11:03:02.754Z,90.83
2023-11-21T11:04:02.461Z,90.94
2023-11-21T11:05:02.538Z,90.73
2023-11-21T11:06:02.351Z,90.32
2023-11-21T11:07:02.775Z,90.53
2023-11-21T11:08:02.374Z,91.03
2023-11-21T11:09:02.297Z,90.47
2023-11-21T11:10:02.271Z,90.53
2023-11-21T11:11:02.337Z,90.42
2023-11-21T11:12:02.264Z,90.73
2023-11-21T11:13:02.259Z,91.03
2023-11-21T11:14:02.347Z,90.83
2023-11-21T11:15:02.277Z,90.42
2023-11-21T11:16:02.229Z,90.53
2023-11-21T11:17:02.337Z,90.32
2023-11-21T11:18:02.243Z,89.87
2023-11-21T11:19:02.220Z,89.77
2023-11-21T11:20:02.222Z,89.42
2023-11-21T11:21:02.166Z,89.32
2023-11-21T11:22:02.190Z,89.22
2023-11-21T11:23:02.178Z,88.46
2023-11-21T11:24:02.143Z,88.77
2023-11-21T11:25:02.138Z,88.16
2023-11-21T11:26:02.190Z,85.41
2023-11-21T11:27:02.101Z,85.41
2023-11-21T11:28:02.131Z,85.72
2023-11-21T11:29:02.172Z,85.51
2023-11-21T11:30:02.116Z,85.61
2023-11-21T11:31:02.133Z,85.31
2023-11-21T11:32:02.077Z,86.43
2023-11-21T11:33:02.073Z,86.74
2023-11-21T11:34:02.045Z,86.53
2023-11-21T11:35:02.687Z,87.24
2023-11-21T11:36:02.058Z,87.75
2023-11-21T11:37:02.000Z,87.85
2023-11-21T11:38:02.044Z,87.45
2023-11-21T11:39:01.957Z,87.65
2023-11-21T11:40:01.964Z,87.85
2023-11-21T11:41:01.994Z,87.45
2023-11-21T11:42:01.951Z,87.96
2023-11-21T11:43:01.931Z,87.85
2023-11-21T11:44:01.992Z,87.59
2023-11-21T11:45:01.994Z,87.08
2023-11-21T11:46:01.897Z,88.10
2023-11-21T11:47:05.053Z,87.79
2023-11-21T11:48:01.951Z,87.59
2023-11-21T11:49:01.848Z,88.20
2023-11-21T11:50:01.988Z,88.40
2023-11-21T11:51:01.830Z,88.40
2023-11-21T11:52:01.864Z,89.42
2023-11-21T11:53:02.284Z,89.32
2023-11-21T11:54:01.827Z,89.22
2023-11-21T11:55:01.816Z,89.63
2023-11-21T11:56:01.806Z,88.81
2023-11-21T11:57:01.850Z,89.22
2023-11-21T11:58:02.120Z,89.42
2023-11-21T11:59:01.783Z,88.77
2023-11-21T12:00:01.760Z,89.18
2023-11-21T12:01:01.732Z,89.22
2023-11-21T12:02:01.806Z,89.53
2023-11-21T12:03:01.858Z,89.83
2023-11-21T12:04:01.767Z,89.83
2023-11-21T12:05:01.772Z,90.03
2023-11-21T12:06:01.716Z,89.42
2023-11-21T12:07:01.675Z,89.42
2023-11-21T12:08:01.678Z,89.63
2023-11-21T12:09:01.651Z,89.83
2023-11-21T12:10:01.660Z,89.53
2023-11-21T12:11:01.671Z,89.67
2023-11-21T12:12:01.634Z,89.63
2023-11-21T12:13:01.602Z,89.73
2023-11-21T12:14:01.602Z,90.44
2023-11-21T12:15:01.607Z,90.55
2023-11-21T12:16:01.630Z,90.34
2023-11-21T12:17:01.614Z,89.32
2023-11-21T12:18:01.580Z,88.51
2023-11-21T12:19:01.586Z,88.71
2023-11-21T12:20:01.593Z,87.85
2023-11-21T12:21:01.558Z,87.65
2023-11-21T12:22:01.533Z,87.65
2023-11-21T12:23:01.656Z,88.16
2023-11-21T12:24:01.492Z,88.46
2023-11-21T12:25:01.874Z,88.67
2023-11-21T12:26:01.495Z,89.14
2023-11-21T12:27:01.450Z,88.63
2023-11-21T12:28:01.466Z,88.32
2023-11-21T12:29:01.446Z,87.98
2023-11-21T12:30:01.442Z,88.08
2023-11-21T12:31:11.053Z,86.05
2023-11-21T12:32:02.456Z,81.93
2023-11-21T12:33:01.541Z,79.73
2023-11-21T12:34:01.396Z,78.78
2023-11-21T12:35:01.435Z,77.03
2023-11-21T12:36:01.387Z,75.64
2023-11-21T12:37:01.351Z,74.22
2023-11-21T12:38:01.368Z,70.43
2023-11-21T12:39:01.328Z,67.85
2023-11-21T12:40:01.386Z,65.78
2023-11-21T12:41:01.352Z,65.82
2023-11-21T12:42:01.302Z,64.59
2023-11-21T12:43:01.277Z,65.64
2023-11-21T12:44:01.366Z,68.88
2023-11-21T12:45:01.260Z,71.30
2023-11-21T12:46:01.278Z,73.48
2023-11-21T12:47:01.287Z,73.25
2023-11-21T12:48:01.692Z,74.22
2023-11-21T12:49:01.232Z,76.08
2023-11-21T12:50:01.217Z,76.72
2023-11-21T12:51:01.193Z,77.26
2023-11-21T12:52:01.176Z,76.93